St Ives Cornwall, United Kingdom
Current Conditions -  °F | °C
As of 8:50 PM on Saturday 25 Oct 2014 (Local Time) from EGDR Reporting Station
Overcast Overcast  
Wind Chill: 55°   Ceiling: 3500
Heat Index: 55°   Visibility: 6mi
Dew Point: 48°   Wind: 13mph
Humidity: 77%   Direction: 220°SW
Pressure: 30.15"   Gusts: NA
Location:  50.21°N, 5.48°W
Report Text: EGDR 251950Z 22011KT 9999 FEW020 OVC035 13/09 Q1021 BLU
Loading
Personal Weather Stations






























Interactive Weather Map
Tropical Storm Tracking
New forecast layout! Learn more

10-Day Weather Forecast

Advertisements
Track Severe Weather on mobile